Time;durP1;ratioP1;P1;durP2;ratioP2;P2;SDS_P1;SDS_P2;PMS_P1;PMS_P2;Temp;Humidity;BMP_temperature;BMP_pressure;BME280_temperature;BME280_humidity;BME280_pressure;Samples;Min_cycle;Max_cycle;Signal;HPM_P1;HPM_P2
2023/06/04 00:01:46;;;;;;;;;;;;;;;23.19;58.67;100754.84;4995227;28;20057;-77
2023/06/04 00:04:31;;;;;;;;;;;;;;;23.25;58.71;100745.72;4994048;28;19914;-77
2023/06/04 00:07:15;;;;;;;;;;;;;;;23.41;57.70;100751.63;4999734;28;19917;-77
2023/06/04 00:10:00;;;;;;;;;;;;;;;23.33;57.76;100749.25;5014942;28;19913;-77
2023/06/04 00:12:44;;;;;;;;;;;;;;;23.20;58.34;100759.19;5026920;28;19913;-78
2023/06/04 00:15:29;;;;;;;;;;;;;;;23.31;57.88;100754.44;5023901;28;19917;-77
2023/06/04 00:18:14;;;;;;;;;;;;;;;23.19;58.28;100761.19;5012671;28;19917;-77
2023/06/04 00:20:58;;;;;;;;;;;;;;;23.29;57.39;100767.91;5014369;28;19917;-77
2023/06/04 00:23:42;;;;;;;;;;;;;;;23.29;56.87;100759.56;5017265;28;19933;-79
2023/06/04 00:26:27;;;;;;;;;;;;;;;23.14;57.79;100761.59;5015289;28;20391;-77
2023/06/04 00:29:11;;;;;;;;;;;;;;;22.40;60.55;100759.59;5011992;28;19913;-76
2023/06/04 00:31:56;;;;;;;;;;;;;;;22.43;62.19;100758.03;5012761;28;19913;-76
2023/06/04 00:34:40;;;;;;;;;;;;;;;22.25;63.34;100758.00;5015452;28;20579;-76
2023/06/04 00:37:25;;;;;;;;;;;;;;;22.05;64.79;100759.53;5027032;28;19935;-77
2023/06/04 00:40:10;;;;;;;;;;;;;;;22.10;64.82;100757.16;5017317;28;19913;-76
2023/06/04 00:42:55;;;;;;;;;;;;;;;22.08;66.05;100762.31;5015217;28;20292;-77
2023/06/04 00:45:40;;;;;;;;;;;;;;;21.95;65.76;100758.31;5026220;28;19913;-77
2023/06/04 00:48:27;;;;;;;;;;;;;;;21.95;65.71;100760.28;5004883;28;19913;-76
2023/06/04 00:51:12;;;;;;;;;;;;;;;22.01;65.69;100755.97;5013033;28;19913;-77
2023/06/04 00:53:58;;;;;;;;;;;;;;;21.92;66.45;100756.31;5014322;28;19914;-77
2023/06/04 00:56:43;;;;;;;;;;;;;;;21.90;66.17;100752.34;5019284;28;19917;-76
2023/06/04 00:59:29;;;;;;;;;;;;;;;21.69;66.91;100750.28;5020544;28;19917;-77
2023/06/04 01:02:22;;;;;;;;;;;;;;;21.70;66.90;100751.88;5029539;28;19939;-77
2023/06/04 01:05:10;;;;;;;;;;;;;;;21.67;67.55;100761.75;5031877;28;19913;-77
2023/06/04 01:07:55;;;;;;;;;;;;;;;21.71;67.41;100759.00;5014206;28;19913;-77
2023/06/04 01:10:50;;;;;;;;;;;;;;;21.92;66.18;100761.06;5028912;28;19914;-78
2023/06/04 01:13:34;;;;;;;;;;;;;;;21.99;65.72;100763.88;5018052;28;19913;-76
2023/06/04 01:16:19;;;;;;;;;;;;;;;22.47;62.78;100764.34;5044441;28;19917;-76
2023/06/04 01:19:10;;;;;;;;;;;;;;;22.62;62.30;100774.28;5042166;28;19917;-76
2023/06/04 01:22:02;;;;;;;;;;;;;;;22.66;62.09;100774.25;4999304;28;20392;-76
2023/06/04 01:24:52;;;;;;;;;;;;;;;22.32;64.55;100779.38;5015899;28;19913;-77
2023/06/04 01:27:37;;;;;;;;;;;;;;;22.35;63.57;100775.84;5007175;28;20300;-77
2023/06/04 01:30:23;;;;;;;;;;;;;;;22.79;61.46;100776.28;5031476;28;19913;-77
2023/06/04 01:33:07;;;;;;;;;;;;;;;23.02;60.44;100778.63;5029693;28;20303;-77
2023/06/04 01:35:52;;;;;;;;;;;;;;;23.15;60.16;100779.03;5013517;28;19913;-76
2023/06/04 01:38:36;;;;;;;;;;;;;;;23.17;59.92;100773.84;5014015;28;19917;-77
2023/06/04 01:41:20;;;;;;;;;;;;;;;23.26;59.69;100780.56;5063026;22;19922;-80
2023/06/04 01:44:05;;;;;;;;;;;;;;;23.10;60.69;100784.97;4964119;28;20456;-81
2023/06/04 01:46:49;;;;;;;;;;;;;;;23.18;59.98;100783.78;4962713;29;19914;-81
2023/06/04 01:49:34;;;;;;;;;;;;;;;23.22;59.79;100781.78;4980120;28;19915;-81
2023/06/04 01:52:20;;;;;;;;;;;;;;;23.11;60.68;100787.34;4976744;28;19914;-81
2023/06/04 01:55:07;;;;;;;;;;;;;;;23.23;60.11;100791.69;4965298;29;19915;-80
2023/06/04 01:57:51;;;;;;;;;;;;;;;23.29;59.57;100788.13;4989505;28;19919;-80
2023/06/04 02:00:36;;;;;;;;;;;;;;;23.34;59.67;100786.91;4979387;28;20290;-80
2023/06/04 02:03:21;;;;;;;;;;;;;;;23.38;59.57;100793.25;4964509;29;19914;-80
2023/06/04 02:06:07;;;;;;;;;;;;;;;23.40;59.69;100788.09;4961948;29;19914;-80
2023/06/04 02:08:54;;;;;;;;;;;;;;;23.41;59.59;100781.34;4989884;28;19915;-80
2023/06/04 02:11:38;;;;;;;;;;;;;;;23.41;59.81;100784.13;4960243;28;19915;-79
2023/06/04 02:14:23;;;;;;;;;;;;;;;23.41;59.66;100781.34;4959765;29;19915;-80
2023/06/04 02:17:12;;;;;;;;;;;;;;;23.42;59.79;100786.50;4963621;28;19914;-79
2023/06/04 02:19:57;;;;;;;;;;;;;;;23.42;59.92;100783.72;4976446;28;19918;-80
2023/06/04 02:22:42;;;;;;;;;;;;;;;23.42;59.89;100782.91;4975084;28;20305;-80
2023/06/04 02:25:27;;;;;;;;;;;;;;;23.42;59.93;100785.69;4962244;29;19914;-80
2023/06/04 02:28:12;;;;;;;;;;;;;;;23.40;60.32;100782.53;4975411;28;19915;-79
2023/06/04 02:30:56;;;;;;;;;;;;;;;23.40;60.35;100782.53;4979553;28;19914;-79
2023/06/04 02:33:41;;;;;;;;;;;;;;;23.41;60.26;100784.13;4977853;28;19914;-79
2023/06/04 02:36:26;;;;;;;;;;;;;;;23.38;60.10;100785.72;4976035;28;19914;-79
2023/06/04 02:39:10;;;;;;;;;;;;;;;23.40;60.25;100777.00;4966745;28;19919;-80
2023/06/04 02:41:55;;;;;;;;;;;;;;;23.39;60.35;100780.97;4974500;28;19918;-79
2023/06/04 02:44:39;;;;;;;;;;;;;;;23.39;60.35;100787.31;4976238;28;19914;-80
2023/06/04 02:47:24;;;;;;;;;;;;;;;23.40;60.35;100782.53;4962101;29;19914;-80
2023/06/04 02:50:09;;;;;;;;;;;;;;;23.38;60.50;100787.69;4978383;28;19914;-80
2023/06/04 02:52:54;;;;;;;;;;;;;;;23.37;60.59;100788.88;4976773;28;19915;-79
2023/06/04 02:55:39;;;;;;;;;;;;;;;23.32;60.58;100783.72;4974717;28;19918;-79
2023/06/04 02:58:25;;;;;;;;;;;;;;;23.32;60.59;100792.06;4977883;28;19918;-80
2023/06/04 03:01:16;;;;;;;;;;;;;;;23.33;60.77;100788.09;4963745;28;19914;-80
2023/06/04 03:04:04;;;;;;;;;;;;;;;23.30;61.09;100788.91;4976017;28;19919;-80
2023/06/04 03:06:57;;;;;;;;;;;;;;;23.31;60.97;100780.19;4978907;28;19914;-81
2023/06/04 03:09:42;;;;;;;;;;;;;;;23.32;61.04;100783.72;4990600;28;19915;-80
2023/06/04 03:12:26;;;;;;;;;;;;;;;23.32;61.08;100786.50;4967279;28;19915;-80
2023/06/04 03:15:11;;;;;;;;;;;;;;;23.32;60.95;100780.97;4965767;28;19914;-80
2023/06/04 03:17:56;;;;;;;;;;;;;;;23.32;60.93;100781.75;4965095;29;19918;-81
2023/06/04 03:20:41;;;;;;;;;;;;;;;23.32;60.86;100786.50;4978632;28;19918;-81
2023/06/04 03:23:26;;;;;;;;;;;;;;;23.30;60.87;100789.72;4982224;28;19914;-80
2023/06/04 03:26:12;;;;;;;;;;;;;;;23.30;60.78;100789.72;4977590;28;19915;-80
2023/06/04 03:28:58;;;;;;;;;;;;;;;23.28;60.93;100791.28;4974360;28;19915;-81
2023/06/04 03:31:44;;;;;;;;;;;;;;;23.28;60.92;100794.06;4988385;28;20373;-80
2023/06/04 03:34:31;;;;;;;;;;;;;;;23.29;60.84;100792.88;4961719;29;19915;-80
2023/06/04 03:37:16;;;;;;;;;;;;;;;23.28;60.88;100797.63;4947694;29;19914;-80
2023/06/04 03:40:05;;;;;;;;;;;;;;;23.26;60.82;100796.47;4979088;28;19918;-80
2023/06/04 03:42:51;;;;;;;;;;;;;;;23.24;61.17;100801.59;4990260;28;19914;-80
2023/06/04 03:45:37;;;;;;;;;;;;;;;23.24;60.95;100807.16;4961322;28;19914;-80
2023/06/04 03:48:22;;;;;;;;;;;;;;;23.24;60.92;100812.72;4978425;28;19914;-80
2023/06/04 03:51:07;;;;;;;;;;;;;;;23.22;60.83;100804.78;4974482;28;20382;-80
2023/06/04 03:53:53;;;;;;;;;;;;;;;23.23;60.76;100805.56;4962050;29;19914;-80
2023/06/04 03:56:39;;;;;;;;;;;;;;;23.22;60.81;100799.22;4978608;28;19914;-81
2023/06/04 03:59:24;;;;;;;;;;;;;;;23.23;60.87;100803.59;4989493;28;19918;-80
2023/06/04 04:02:09;;;;;;;;;;;;;;;23.22;60.70;100799.22;4974754;28;19914;-81
2023/06/04 04:04:57;;;;;;;;;;;;;;;23.23;60.74;100797.25;4992194;28;19915;-80
2023/06/04 04:07:41;;;;;;;;;;;;;;;23.22;60.90;100788.13;4960503;29;19914;-81
2023/06/04 04:10:26;;;;;;;;;;;;;;;23.22;60.67;100787.31;4974890;28;19915;-81
2023/06/04 04:13:11;;;;;;;;;;;;;;;23.23;60.86;100794.47;4978600;28;19914;-80
2023/06/04 04:15:57;;;;;;;;;;;;;;;23.23;60.76;100792.47;4989496;28;19914;-80
2023/06/04 04:18:46;;;;;;;;;;;;;;;23.23;60.86;100794.47;4975809;28;19918;-80
2023/06/04 04:21:31;;;;;;;;;;;;;;;23.23;60.96;100794.47;4992550;28;19914;-80
2023/06/04 04:24:22;;;;;;;;;;;;;;;23.23;60.94;100795.25;4958574;29;20565;-80
2023/06/04 04:27:10;;;;;;;;;;;;;;;23.19;61.39;100797.25;4973824;28;20381;-80
2023/06/04 04:29:59;;;;;;;;;;;;;;;23.15;61.27;100795.69;4977464;28;19918;-80
2023/06/04 04:32:48;;;;;;;;;;;;;;;23.16;61.33;100794.50;4990466;28;19914;-81
2023/06/04 04:35:34;;;;;;;;;;;;;;;23.15;61.37;100784.59;4961295;28;19914;-80
2023/06/04 04:38:23;;;;;;;;;;;;;;;23.16;61.53;100800.03;4990510;28;20282;-79
2023/06/04 04:41:12;;;;;;;;;;;;;;;23.14;61.57;100792.09;4973672;28;19915;-79
2023/06/04 04:44:02;;;;;;;;;;;;;;;23.13;61.66;100790.53;4973213;28;19914;-80
2023/06/04 04:46:48;;;;;;;;;;;;;;;23.14;61.67;100796.88;4976778;28;19914;-80
2023/06/04 04:49:32;;;;;;;;;;;;;;;23.15;61.63;100787.34;4975398;28;19914;-80
2023/06/04 04:52:17;;;;;;;;;;;;;;;23.15;61.35;100790.13;4979566;28;19914;-80
2023/06/04 04:55:02;;;;;;;;;;;;;;;23.15;61.58;100801.22;5010298;28;19914;-80
2023/06/04 04:57:50;;;;;;;;;;;;;;;23.14;61.56;100802.41;4996377;28;19914;-81
2023/06/04 05:00:35;;;;;;;;;;;;;;;23.14;61.39;100802.41;5007733;28;19922;-81
2023/06/04 05:03:21;;;;;;;;;;;;;;;23.15;61.53;100804.00;4997101;28;20416;-79
2023/06/04 05:06:06;;;;;;;;;;;;;;;23.15;61.41;100795.69;4979638;28;19918;-79
2023/06/04 05:08:50;;;;;;;;;;;;;;;23.12;61.60;100794.47;4967243;28;19914;-79
2023/06/04 05:11:35;;;;;;;;;;;;;;;23.12;61.71;100793.69;4993060;28;20115;-79
2023/06/04 05:14:21;;;;;;;;;;;;;;;23.12;61.73;100800.03;4980252;28;19914;-80
2023/06/04 05:17:06;;;;;;;;;;;;;;;23.11;61.74;100800.44;5004263;28;19918;-80
2023/06/04 05:19:52;;;;;;;;;;;;;;;23.10;61.68;100802.44;4964423;28;20286;-79
2023/06/04 05:22:37;;;;;;;;;;;;;;;23.11;61.83;100803.22;4975704;28;19918;-79
2023/06/04 05:25:23;;;;;;;;;;;;;;;23.11;61.65;100808.78;4975879;28;19914;-80
2023/06/04 05:28:09;;;;;;;;;;;;;;;23.12;61.83;100810.34;4977327;28;20401;-80
2023/06/04 05:30:59;;;;;;;;;;;;;;;23.11;61.52;100809.53;4989795;28;19915;-79
2023/06/04 05:33:45;;;;;;;;;;;;;;;23.11;61.41;100814.31;4977991;28;19915;-80
2023/06/04 05:36:34;;;;;;;;;;;;;;;23.11;61.53;100812.31;4979779;28;19914;-79
2023/06/04 05:39:24;;;;;;;;;;;;;;;23.12;61.44;100813.09;4976347;28;19919;-80
2023/06/04 05:42:16;;;;;;;;;;;;;;;23.12;61.43;100822.22;4975964;28;19918;-80
2023/06/04 05:45:03;;;;;;;;;;;;;;;23.12;61.24;100822.22;4978550;28;19915;-80
2023/06/04 05:47:47;;;;;;;;;;;;;;;23.14;61.54;100819.06;4980924;28;19915;-80
2023/06/04 05:50:32;;;;;;;;;;;;;;;23.13;61.61;100823.81;4957199;28;19914;-79
2023/06/04 05:53:17;;;;;;;;;;;;;;;23.12;61.49;100822.22;4982079;28;19918;-80
2023/06/04 05:56:01;;;;;;;;;;;;;;;23.11;61.82;100826.19;4979652;28;19914;-80
2023/06/04 05:58:50;;;;;;;;;;;;;;;23.15;61.56;100828.97;4977184;28;20103;-79
2023/06/04 06:01:36;;;;;;;;;;;;;;;23.15;61.52;100827.00;4979738;28;19915;-80
2023/06/04 06:04:21;;;;;;;;;;;;;;;23.17;61.63;100830.16;4979267;28;19914;-79
2023/06/04 06:07:05;;;;;;;;;;;;;;;23.16;61.53;100836.13;4976825;28;19914;-79
2023/06/04 06:09:50;;;;;;;;;;;;;;;23.16;61.72;100833.34;4976141;28;20305;-79
2023/06/04 06:12:34;;;;;;;;;;;;;;;23.15;61.47;100843.66;4944279;29;19914;-79
2023/06/04 06:15:19;;;;;;;;;;;;;;;23.15;61.60;100845.63;4957835;28;19918;-77
2023/06/04 06:18:06;;;;;;;;;;;;;;;23.06;62.18;100843.22;4956372;28;19915;-76
2023/06/04 06:20:50;;;;;;;;;;;;;;;23.10;62.31;100843.25;4960216;28;19918;-76
2023/06/04 06:23:35;;;;;;;;;;;;;;;23.07;62.54;100846.78;4959412;28;19914;-78
2023/06/04 06:26:21;;;;;;;;;;;;;;;23.02;62.34;100846.00;4975282;28;20724;-78
2023/06/04 06:29:10;;;;;;;;;;;;;;;22.98;62.67;100847.19;4973147;28;19914;-78
2023/06/04 06:31:55;;;;;;;;;;;;;;;22.99;62.54;100846.81;4971131;28;20378;-77
2023/06/04 06:34:39;;;;;;;;;;;;;;;23.00;62.98;100847.59;4957341;29;20285;-78
2023/06/04 06:37:24;;;;;;;;;;;;;;;23.01;63.00;100852.75;4956478;29;19914;-78
2023/06/04 06:40:09;;;;;;;;;;;;;;;22.98;63.03;100850.78;4980927;28;19918;-78
2023/06/04 06:42:54;;;;;;;;;;;;;;;23.00;63.29;100847.59;4958052;29;19915;-77
2023/06/04 06:45:38;;;;;;;;;;;;;;;22.95;63.58;100846.03;4957142;29;19914;-78
2023/06/04 06:48:23;;;;;;;;;;;;;;;22.95;63.29;100851.56;4956665;29;19914;-78
2023/06/04 06:51:07;;;;;;;;;;;;;;;22.97;63.28;100854.72;4956800;28;20381;-78
2023/06/04 06:53:52;;;;;;;;;;;;;;;22.96;63.57;100863.44;4956918;29;20386;-78
2023/06/04 06:56:36;;;;;;;;;;;;;;;22.99;63.14;100863.47;4957006;29;19918;-78
2023/06/04 06:59:20;;;;;;;;;;;;;;;23.00;63.06;100865.06;4955674;29;19918;-78
2023/06/04 07:02:05;;;;;;;;;;;;;;;23.01;63.03;100863.03;4971356;28;19918;-77
2023/06/04 07:04:49;;;;;;;;;;;;;;;23.00;63.00;100864.25;4955489;29;19914;-78
2023/06/04 07:07:34;;;;;;;;;;;;;;;22.97;63.20;100871.38;4983166;28;19914;-78
2023/06/04 07:10:18;;;;;;;;;;;;;;;23.01;62.90;100871.38;4983040;28;19914;-78
2023/06/04 07:13:02;;;;;;;;;;;;;;;23.02;63.11;100879.28;4956711;29;19915;-77
2023/06/04 07:15:47;;;;;;;;;;;;;;;23.02;63.06;100881.28;4937352;29;19915;-78
2023/06/04 07:18:32;;;;;;;;;;;;;;;23.02;62.97;100876.53;4981604;28;19914;-78
2023/06/04 07:21:16;;;;;;;;;;;;;;;23.03;63.43;100880.09;4937382;29;19919;-78
2023/06/04 07:24:01;;;;;;;;;;;;;;;23.03;63.39;100880.88;4948541;28;19914;-78
2023/06/04 07:26:45;;;;;;;;;;;;;;;23.08;63.28;100876.13;4957613;28;19914;-78
2023/06/04 07:29:30;;;;;;;;;;;;;;;23.09;63.46;100877.72;4956377;29;19922;-78
2023/06/04 07:32:14;;;;;;;;;;;;;;;23.11;64.09;100881.66;4961562;28;19914;-78
2023/06/04 07:34:58;;;;;;;;;;;;;;;23.12;64.40;100886.03;4962195;28;19915;-78
2023/06/04 07:37:45;;;;;;;;;;;;;;;23.17;64.60;100882.06;4947052;29;20394;-78
2023/06/04 07:40:29;;;;;;;;;;;;;;;23.16;64.79;100886.81;4959796;28;19921;-78
2023/06/04 07:43:13;;;;;;;;;;;;;;;23.15;65.15;100898.34;5060884;22;19921;-77
2023/06/04 07:45:58;;;;;;;;;;;;;;;23.14;65.22;100897.53;5004928;28;20316;-78
2023/06/04 07:48:42;;;;;;;;;;;;;;;23.16;64.92;100889.59;4986238;28;19917;-77
2023/06/04 07:51:27;;;;;;;;;;;;;;;23.16;65.05;100888.84;4979583;28;19914;-79
2023/06/04 07:54:13;;;;;;;;;;;;;;;23.19;65.18;100893.56;4985966;28;19917;-77
2023/06/04 07:56:58;;;;;;;;;;;;;;;23.21;65.65;100893.97;4995272;28;19914;-77
2023/06/04 07:59:42;;;;;;;;;;;;;;;23.23;65.52;100886.84;4985161;28;19921;-78
2023/06/04 08:02:27;;;;;;;;;;;;;;;23.26;65.72;100888.03;4988407;28;20389;-78
2023/06/04 08:05:13;;;;;;;;;;;;;;;23.27;65.77;100881.28;5003862;28;19914;-77
2023/06/04 08:07:58;;;;;;;;;;;;;;;23.18;65.77;100884.44;5015691;28;19913;-78
2023/06/04 08:10:42;;;;;;;;;;;;;;;23.21;64.63;100888.44;5003694;28;19913;-78
2023/06/04 08:13:27;;;;;;;6.50;2.83;;;;;;;23.54;61.13;100892.78;4996456;28;20429;-79
2023/06/04 08:16:12;;;;;;;18.25;4.03;;;;;;;24.61;56.90;100889.25;5013448;28;20060;-78
2023/06/04 08:18:56;;;;;;;7.05;2.65;;;;;;;24.76;54.35;100894.72;5010448;28;20051;-77
2023/06/04 08:21:41;;;;;;;3.40;2.10;;;;;;;25.16;53.46;100891.25;4994556;28;20054;-79
2023/06/04 08:24:26;;;;;;;5.15;2.10;;;;;;;25.71;50.84;100902.31;4978771;28;20402;-77
2023/06/04 08:27:12;;;;;;;2.05;1.70;;;;;;;26.34;48.50;100900.00;4982339;28;20545;-78
2023/06/04 08:29:57;;;;;;;2.83;1.83;;;;;;;26.77;47.56;100900.19;4982149;28;20062;-78
2023/06/04 08:32:42;;;;;;;;;;;;;;;26.80;46.40;100904.94;4977801;28;20054;-77
2023/06/04 08:35:26;;;;;;;;;;;;;;;26.57;46.77;100908.44;4976542;28;19914;-77
2023/06/04 08:38:10;;;;;;;;;;;;;;;26.92;45.99;100904.38;4990352;28;19914;-77
2023/06/04 08:40:57;;;;;;;;;;;;;;;26.38;47.03;100904.34;5005883;28;19917;-77
2023/06/04 08:43:45;;;;;;;;;;;;;;;26.35;48.19;100913.56;4985285;28;19917;-76
2023/06/04 08:46:31;;;;;;;;;;;;;;;27.20;45.26;100909.53;4978491;28;19917;-78
2023/06/04 08:49:16;;;;;;;;;;;;;;;26.17;49.16;100920.50;5003492;28;19914;-78
2023/06/04 08:52:01;;;;;;;;;;;;;;;25.95;48.13;100926.34;5007672;28;19914;-78
2023/06/04 08:54:47;;;;;;;;;;;;;;;25.95;48.65;100917.19;4997801;28;19914;-78
2023/06/04 08:57:32;;;;;;;;;;;;;;;25.90;47.19;100920.44;4997505;28;19918;-78
2023/06/04 09:00:18;;;;;;;;;;;;;;;25.43;49.98;100916.50;4997023;28;19918;-77
2023/06/04 09:03:03;;;;;;;;;;;;;;;24.79;51.01;100921.72;4998128;28;19918;-78
2023/06/04 09:05:49;;;;;;;;;;;;;;;24.85;50.65;100920.88;4984244;28;19913;-78
2023/06/04 09:08:35;;;;;;;;;;;;;;;24.60;52.07;100914.66;4994729;28;20357;-78
2023/06/04 09:11:21;;;;;;;;;;;;;;;24.02;52.88;100918.09;4994326;28;19913;-76
2023/06/04 09:14:08;;;;;;;;;;;;;;;24.36;52.83;100916.38;4992826;28;19914;-77
2023/06/04 09:16:54;;;;;;;;;;;;;;;25.09;49.92;100930.28;4980706;28;19918;-77
2023/06/04 09:19:39;;;;;;;;;;;;;;;24.26;52.57;100920.00;4997724;28;19918;-78
2023/06/04 09:22:33;;;;;;;;;;;;;;;24.69;51.39;100924.16;4997098;28;19914;-77
2023/06/04 09:25:21;;;;;;;;;;;;;;;24.83;50.77;100922.50;4996000;28;19914;-78
2023/06/04 09:28:06;;;;;;;;;;;;;;;24.66;51.40;100926.94;5004506;28;19913;-78
2023/06/04 09:30:52;;;;;;;;;;;;;;;24.36;51.46;100932.28;4988464;28;19913;-78
2023/06/04 09:33:44;;;;;;;;;;;;;;;24.58;52.12;100931.00;4999313;28;19913;-79
2023/06/04 09:36:35;;;;;;;;;;;;;;;25.40;49.32;100931.22;5001106;28;20308;-77
2023/06/04 09:39:20;;;;;;;;;;;;;;;25.26;50.17;100936.91;4997904;28;19937;-78
2023/06/04 09:42:05;;;;;;;;;;;;;;;25.31;47.98;100937.25;4990043;28;19914;-80
2023/06/04 09:44:50;;;;;;;;;;;;;;;25.27;48.63;100930.94;5001889;28;19914;-78
2023/06/04 09:47:41;;;;;;;;;;;;;;;25.34;49.37;100927.31;5000587;28;19928;-77
2023/06/04 09:50:27;;;;;;;;;;;;;;;24.74;50.98;100927.72;4984755;28;19913;-78
2023/06/04 09:53:15;;;;;;;;;;;;;;;25.24;50.04;100923.41;4994011;28;19914;-79
2023/06/04 09:56:01;;;;;;;;;;;;;;;25.15;50.49;100917.50;5011650;28;19913;-78
2023/06/04 09:58:46;;;;;;;;;;;;;;;24.81;51.24;100913.75;5016366;28;20287;-78
2023/06/04 10:01:31;;;;;;;;;;;;;;;24.82;51.35;100901.44;4989082;28;20393;-78
2023/06/04 10:04:15;;;;;;;;;;;;;;;24.97;50.11;100898.19;5001628;28;19917;-78
2023/06/04 10:07:02;;;;;;;;;;;;;;;25.00;48.82;100886.22;4999524;28;19914;-78
2023/06/04 10:09:47;;;;;;;;;;;;;;;25.04;48.93;100902.91;4989062;28;19913;-78
2023/06/04 10:12:35;;;;;;;;;;;;;;;24.95;50.38;100897.78;5001866;28;19917;-77
2023/06/04 10:15:20;;;;;;;;;;;;;;;25.24;49.64;100903.94;4999846;28;19913;-78
2023/06/04 10:18:05;;;;;;;;;;;;;;;25.10;50.17;100895.69;5006976;28;19914;-75
2023/06/04 10:20:52;;;;;;;;;;;;;;;24.89;51.03;100898.63;4977115;28;19917;-76
2023/06/04 10:23:37;;;;;;;;;;;;;;;24.81;50.89;100892.28;4975995;28;19918;-76
2023/06/04 10:26:22;;;;;;;;;;;;;;;24.95;50.44;100899.75;4994701;28;20389;-77
2023/06/04 10:29:08;;;;;;;;;;;;;;;24.98;49.96;100898.97;4997439;28;20451;-77
2023/06/04 10:31:53;;;;;;;;;;;;;;;24.96;50.01;100893.00;4996549;28;19947;-78
2023/06/04 10:34:38;;;;;;;;;;;;;;;25.31;48.86;100891.94;4988428;28;19914;-79
2023/06/04 10:37:24;;;;;;;;;;;;;;;25.66;47.89;100899.16;4996343;28;19917;-79
2023/06/04 10:40:09;;;;;;;;;;;;;;;25.47;48.66;100894.97;4998263;28;19918;-77
2023/06/04 10:42:53;;;;;;;;;;;;;;;25.48;47.89;100891.78;4999608;28;19929;-78
2023/06/04 10:45:38;;;;;;;;;;;;;;;25.51;47.63;100896.50;4999265;28;20288;-79
2023/06/04 10:48:23;;;;;;;;;;;;;;;25.98;46.35;100891.28;4998962;28;19917;-78
2023/06/04 10:51:07;;;;;;;;;;;;;;;25.18;48.81;100888.88;4999697;28;19914;-78
2023/06/04 10:53:52;;;;;;;;;;;;;;;25.69;47.86;100890.00;4997407;28;19914;-78
2023/06/04 10:56:36;;;;;;;;;;;;;;;25.79;46.84;100886.31;4998527;28;19913;-78
2023/06/04 10:59:21;;;;;;;;;;;;;;;26.04;46.41;100883.25;5003004;28;20373;-78
2023/06/04 11:02:09;;;;;;;;;;;;;;;26.23;46.86;100869.47;5024028;28;19913;-78
2023/06/04 11:05:01;;;;;;;;;;;;;;;26.11;46.74;100875.56;5020450;28;20303;-78
2023/06/04 11:07:47;;;;;;;;;;;;;;;25.39;48.28;100874.75;5003818;28;20475;-77
2023/06/04 11:10:33;;;;;;;;;;;;;;;25.61;47.73;100880.13;5009365;28;19918;-76
2023/06/04 11:13:22;;;;;;;;;;;;;;;26.20;46.31;100875.88;5005382;28;19913;-77
2023/06/04 11:16:18;;;;;;;;;;;;;;;26.50;44.28;100872.31;4995112;28;19916;-77
2023/06/04 11:19:03;;;;;;;;;;;;;;;25.43;47.18;100877.50;4992694;28;19918;-76
2023/06/04 11:21:48;;;;;;;;;;;;;;;25.78;46.91;100884.72;5005552;28;19918;-78
2023/06/04 11:24:32;;;;;;;;;;;;;;;26.04;45.25;100880.47;4992088;28;19914;-79
2023/06/04 11:27:17;;;;;;;;;;;;;;;26.56;43.39;100869.84;4989895;28;19914;-78
2023/06/04 11:30:02;;;;;;;;;;;;;;;26.23;44.85;100875.06;4991149;28;20373;-78
2023/06/04 11:32:46;;;;;;;;;;;;;;;26.29;44.90;100878.97;4987743;28;19913;-77
2023/06/04 11:35:40;;;;;;;;;;;;;;;26.42;44.40;100864.44;4976112;28;19914;-79
2023/06/04 11:38:24;;;;;;;;;;;;;;;25.83;46.61;100871.13;4976257;28;19914;-78
2023/06/04 11:41:08;;;;;;;;;;;;;;;25.79;47.25;100864.81;4976476;28;19921;-78
2023/06/04 11:43:53;;;;;;;;;;;;;;;25.92;46.78;100865.06;4976467;28;19917;-79
2023/06/04 11:46:41;;;;;;;;;;;;;;;25.91;46.59;100867.06;4976851;28;19913;-77
2023/06/04 11:49:27;;;;;;;;;;;;;;;26.20;46.03;100845.19;4980768;28;19914;-75
2023/06/04 11:52:12;;;;;;;;;;;;;;;26.06;46.32;100852.97;4989931;28;19913;-78
2023/06/04 11:54:56;;;;;;;;;;;;;;;26.14;45.88;100854.44;4995394;28;19913;-79
2023/06/04 11:57:41;;;;;;;;;;;;;;;25.55;48.29;100858.28;4977138;28;19918;-77
2023/06/04 12:00:26;;;;;;;;;;;;;;;27.03;44.37;100851.19;4987913;28;19917;-78
2023/06/04 12:03:10;;;;;;;;;;;;;;;26.80;43.46;100846.34;4996881;28;19913;-77
2023/06/04 12:05:55;;;;;;;;;;;;;;;26.86;43.63;100850.25;4998109;28;19917;-78
2023/06/04 12:08:55;;;;;;;;;;;;;;;26.88;42.88;100852.63;5000420;28;19913;-79
2023/06/04 12:11:41;;;;;;;;;;;;;;;26.49;44.67;100847.63;4983393;28;19914;-78
2023/06/04 12:14:26;;;;;;;;;;;;;;;26.32;43.46;100852.22;4985335;28;19913;-78
2023/06/04 12:17:11;;;;;;;;;;;;;;;26.62;43.64;100851.38;4988700;28;20381;-79
2023/06/04 12:19:58;;;;;;;;;;;;;;;26.51;44.93;100850.78;4995359;28;19926;-78
2023/06/04 12:22:46;;;;;;;;;;;;;;;28.31;41.26;100855.13;4995391;28;19917;-79
2023/06/04 12:25:32;;;;;;;;;;;;;;;29.26;38.59;100854.88;4992188;28;19918;-79
2023/06/04 12:28:17;;;;;;;;;;;;;;;31.58;34.75;100858.69;4987850;28;19922;-78
2023/06/04 12:31:01;;;;;;;;;;;;;;;28.65;39.91;100846.41;4984194;28;19918;-78
2023/06/04 12:33:45;;;;;;;;;;;;;;;27.29;42.92;100841.16;4992931;28;19921;-78
2023/06/04 12:36:30;;;;;;;;;;;;;;;28.00;41.85;100840.59;4992539;28;19914;-78
2023/06/04 12:39:14;;;;;;;;;;;;;;;30.10;36.13;100845.38;4989848;28;19914;-76
2023/06/04 12:41:59;;;;;;;5.60;2.78;;;;;;;29.27;39.02;100840.44;4990765;28;20431;-78
2023/06/04 12:44:44;;;;;;;6.90;2.35;;;;;;;31.46;34.59;100836.97;4992318;28;20062;-78
2023/06/04 12:47:29;;;;;;;3.75;2.42;;;;;;;33.29;30.34;100834.66;4993020;28;20054;-78
2023/06/04 12:50:14;;;;;;;5.05;2.83;;;;;;;32.94;31.61;100831.28;4995197;28;20397;-78
2023/06/04 12:52:59;;;;;;;3.00;1.95;;;;;;;30.95;33.22;100818.22;4998052;28;20531;-77
2023/06/04 12:55:44;;;;;;;3.80;2.33;;;;;;;32.51;31.73;100828.63;4996227;28;20049;-78
2023/06/04 12:58:30;;;;;;;2.88;1.98;;;;;;;29.27;37.68;100828.44;5001044;28;20049;-78
2023/06/04 13:01:15;;;;;;;3.47;2.28;;;;;;;28.04;40.15;100816.91;4990894;28;20049;-78
2023/06/04 13:04:00;;;;;;;5.60;2.70;;;;;;;26.89;42.92;100810.34;4987549;28;20041;-78
2023/06/04 13:06:45;;;;;;;4.65;2.50;;;;;;;28.98;38.02;100816.41;4974673;28;20049;-79
2023/06/04 13:09:32;;;;;;;4.25;2.78;;;;;;;30.48;36.13;100806.94;4999610;28;20528;-78
2023/06/04 13:12:19;;;;;;;4.18;2.78;;;;;;;29.03;38.88;100813.06;4985509;28;20054;-78
2023/06/04 13:15:04;;;;;;;5.38;2.33;;;;;;;31.41;34.91;100808.22;4992930;28;20046;-77
2023/06/04 13:17:49;;;;;;;40.53;10.23;;;;;;;31.35;33.85;100815.66;4989580;28;20053;-78
2023/06/04 13:20:35;;;;;;;6.68;3.03;;;;;;;28.73;38.33;100808.63;4978648;28;20038;-76
2023/06/04 13:23:22;;;;;;;61.28;16.65;;;;;;;27.87;41.34;100804.13;4978794;28;20065;-78
2023/06/04 13:26:08;;;;;;;60.33;16.92;;;;;;;27.27;43.48;100801.72;5008094;28;20035;-77
2023/06/04 13:28:53;;;;;;;15.25;5.85;;;;;;;26.80;44.25;100793.31;4991529;28;20042;-77
2023/06/04 13:31:39;;;;;;;22.60;6.57;;;;;;;26.78;44.01;100799.31;4981831;28;20038;-77
2023/06/04 13:34:24;;;;;;;16.98;3.72;;;;;;;26.56;43.97;100795.31;4979153;28;20050;-78
2023/06/04 13:37:13;;;;;;;11.35;3.75;;;;;;;26.46;44.85;100793.47;4982357;28;20042;-79
2023/06/04 13:39:58;;;;;;;5.38;2.83;;;;;;;26.25;45.26;100789.00;4989593;28;20069;-78
2023/06/04 13:42:43;;;;;;;5.22;2.55;;;;;;;26.18;44.84;100789.06;5069642;22;20465;-76
2023/06/04 13:45:28;;;;;;;5.70;3.15;;;;;;;26.29;45.27;100789.72;4973084;28;20054;-75
2023/06/04 13:48:13;;;;;;;9.10;3.50;;;;;;;25.96;46.09;100782.19;4972678;28;20046;-76
2023/06/04 13:50:58;;;;;;;4.25;2.78;;;;;;;26.10;45.81;100782.03;4971799;28;20050;-76
2023/06/04 13:53:43;;;;;;;5.97;3.28;;;;;;;26.01;45.37;100778.94;4972111;28;20065;-76
2023/06/04 13:56:28;;;;;;;5.50;2.72;;;;;;;26.14;46.54;100771.59;4972171;28;20508;-77
2023/06/04 13:59:12;;;;;;;;;;;;;;;26.14;45.85;100768.03;4976428;28;20070;-75
2023/06/04 14:01:57;;;;;;;5.25;2.40;;;;;;;26.01;46.76;100767.03;4973284;28;19918;-77